createdAt,value
2023-04-13T00:07:01.996Z,24.245
2023-04-13T00:22:03.855Z,24.453
2023-04-13T00:37:05.645Z,24.765
2023-04-13T00:52:07.447Z,24.8071
2023-04-13T01:07:09.282Z,24.3261
2023-04-13T01:22:11.219Z,23.9361
2023-04-13T01:37:13.114Z,24.3911
2023-04-13T01:52:14.828Z,24.4462
2023-04-13T02:07:16.585Z,24.1051
2023-04-13T02:22:18.349Z,23.959
2023-04-13T02:37:20.184Z,23.9652
2023-04-13T02:52:21.952Z,23.6959
2023-04-13T03:07:24.017Z,24.0011
2023-04-13T03:22:25.881Z,23.1821
2023-04-13T03:37:27.619Z,23.7832
2023-04-13T03:52:29.410Z,23.348
2023-04-13T04:07:31.160Z,24.4301
2023-04-13T04:22:33.179Z,24.3001
2023-04-13T04:37:34.955Z,23.9522
2023-04-13T04:52:36.749Z,24.0661
2023-04-13T05:07:38.514Z,24.2122
2023-04-13T05:22:40.238Z,24.1472
2023-04-13T05:37:42.036Z,24.2834
2023-04-13T05:52:43.779Z,24.1435
2023-04-13T06:07:45.529Z,23.9974
2023-04-13T06:22:47.251Z,24.1144
2023-04-13T06:37:48.943Z,24.0723
2023-04-13T06:52:50.700Z,24.0624
2023-04-13T07:07:52.431Z,23.6953
2023-04-13T07:22:54.293Z,23.6173
2023-04-13T07:37:56.056Z,24.0525
2023-04-13T07:52:57.828Z,22.8893
2023-04-13T08:07:59.610Z,22.7302
2023-04-13T08:23:01.398Z,23.6594
2023-04-13T08:38:03.145Z,23.3994
2023-04-13T08:53:04.861Z,23.7207
2023-04-13T09:08:06.594Z,22.7302
2023-04-13T09:23:08.320Z,22.9091
2023-04-13T09:38:10.093Z,23.0193
2023-04-13T09:53:11.857Z,23.4254
2023-04-13T10:08:14.334Z,22.9964
2023-04-13T10:23:17.061Z,22.9933
2023-04-13T10:38:18.823Z,23.4904
2023-04-13T10:53:20.575Z,23.2595
2023-04-13T11:08:22.353Z,22.6033
2023-04-13T11:23:24.369Z,23.1914
2023-04-13T11:38:26.310Z,23.1066
2023-04-13T11:53:28.264Z,22.8695
2023-04-13T12:08:30.656Z,22.7395
2023-04-13T12:23:32.800Z,23.4675
2023-04-13T12:38:34.653Z,23.1654
2023-04-13T12:53:36.457Z,22.5965
2023-04-13T13:08:40.271Z,22.7494
2023-04-13T13:23:42.243Z,23.0255
2023-04-13T13:38:43.974Z,22.6974
2023-04-13T13:53:45.704Z,23.1326
2023-04-13T14:08:47.432Z,23.2168
2023-04-13T14:23:49.208Z,22.6454
2023-04-13T14:38:50.951Z,22.8955
2023-04-13T14:53:54.231Z,22.6194
2023-04-13T15:08:57.330Z,23.0837
2023-04-13T15:23:59.077Z,22.8695
2023-04-13T15:39:01.160Z,22.9834
2023-04-13T15:54:03.170Z,22.9574
2023-04-13T16:09:05.045Z,22.5185
2023-04-13T16:24:06.751Z,22.2814
2023-04-13T16:39:08.792Z,22.8175
2023-04-13T16:54:11.010Z,22.4504
2023-04-13T17:09:12.752Z,21.9075
2023-04-13T17:24:14.458Z,21.4432
2023-04-13T17:39:16.182Z,21.8357
2023-04-13T17:54:17.953Z,21.8134
2023-04-13T18:09:19.741Z,21.8493
2023-04-13T18:24:21.524Z,22.1155
2023-04-13T18:39:23.246Z,22.1155
2023-04-13T18:54:24.958Z,21.9335
2023-04-13T19:09:26.792Z,22.1353
2023-04-13T19:24:28.593Z,22.9605
2023-04-13T19:39:30.375Z,23.3084
2023-04-13T19:54:32.112Z,23.4322
2023-04-13T20:09:34.086Z,23.8024
2023-04-13T20:24:35.934Z,23.1883
2023-04-13T20:39:37.690Z,23.6953
2023-04-13T20:54:39.497Z,23.4161
2023-04-13T21:09:41.195Z,23.8643
2023-04-13T21:24:42.922Z,23.9064
2023-04-13T21:39:44.713Z,23.7213
2023-04-13T21:54:46.462Z,22.9574
2023-04-13T22:09:48.190Z,22.9413
2023-04-13T22:24:49.932Z,23.2793
2023-04-13T22:39:51.741Z,23.101
2023-04-13T22:54:53.539Z,23.2112
2023-04-13T23:09:55.321Z,23.9293
2023-04-13T23:24:57.142Z,23.4254
2023-04-13T23:39:58.924Z,24.7551
2023-04-13T23:55:00.991Z,25.0281
